Terminal Aerodrome Forecast
Issued by NWS

Home | Current Version | Previous Version | Text Only | Print | Product List | Glossary On
Versions: 1 2 3 4 5 6 7 8 9 10 11 12 13
000
FTUS46 KOTX 281739
TAFSFF
TAF
KSFF 281739Z 2818/2918 22008KT P6SM BKN040 BKN200
     FM290000 20006KT P6SM SCT050 SCT150 BKN200
     FM290200 VRB03KT P6SM SCT100 BKN150
     FM291500 21006KT P6SM FEW050 SCT150=

USA.gov is the U.S. government's official web portal to all federal, state and local government web resources and services.